Time;durP1;ratioP1;P1;durP2;ratioP2;P2;SDS_P1;SDS_P2;PMS_P1;PMS_P2;Temp;Humidity;BMP_temperature;BMP_pressure;BME280_temperature;BME280_humidity;BME280_pressure;Samples;Min_cycle;Max_cycle;Signal;HPM_P1;HPM_P2
2022/04/05 00:02:14;;;;;;;12.82;3.88;;;;;;;;;;5043749;28;20041;-88
2022/04/05 00:04:41;;;;;;;12.25;3.55;;;;;;;;;;5049383;28;20071;-88
2022/04/05 00:07:07;;;;;;;9.82;3.05;;;;;;;;;;5028480;28;20041;-88
2022/04/05 00:09:33;;;;;;;11.52;3.42;;;;;;;;;;5023126;28;20410;-90
2022/04/05 00:11:59;;;;;;;11.35;3.05;;;;;;;;;;5028387;28;20056;-88
2022/04/05 00:14:25;;;;;;;9.90;3.10;;;;;;;;;;5030238;28;20048;-89
2022/04/05 00:16:52;;;;;;;10.18;3.28;;;;;;;;;;5032717;28;20400;-89
2022/04/05 00:19:19;;;;;;;8.20;3.00;;;;;;;;;;5024456;28;20454;-86
2022/04/05 00:21:45;;;;;;;10.25;2.90;;;;;;;;;;4997314;28;20375;-87
2022/04/05 00:24:12;;;;;;;14.85;3.33;;;;;;;;;;5013363;28;20042;-87
2022/04/05 00:26:38;;;;;;;15.93;3.40;;;;;;;;;;5028818;28;20129;-87
2022/04/05 00:29:07;;;;;;;10.77;2.50;;;;;;;;;;5011939;28;20042;-87
2022/04/05 00:31:33;;;;;;;9.43;2.80;;;;;;;;;;5024375;28;20044;-87
2022/04/05 00:33:59;;;;;;;13.32;3.10;;;;;;;;;;5030777;28;20128;-88
2022/04/05 00:36:25;;;;;;;11.40;2.80;;;;;;;;;;5033324;28;20103;-86
2022/04/05 00:38:51;;;;;;;11.43;2.50;;;;;;;;;;5028906;28;20038;-87
2022/04/05 00:41:17;;;;;;;9.13;2.35;;;;;;;;;;5024436;28;20072;-86
2022/04/05 00:43:44;;;;;;;8.30;2.47;;;;;;;;;;5028396;28;20042;-86
2022/04/05 00:46:10;;;;;;;9.77;2.53;;;;;;;;;;5027345;28;20081;-87
2022/04/05 00:48:57;;;;;;;11.95;2.30;;;;;;;;;;5012097;28;20037;-88
2022/04/05 00:51:23;;;;;;;11.88;2.50;;;;;;;;;;5027751;28;20074;-87
2022/04/05 00:53:51;;;;;;;15.38;2.67;;;;;;;;;;5050089;28;20429;-90
2022/04/05 00:56:18;;;;;;;8.40;2.00;;;;;;;;;;5047236;28;20099;-86
2022/04/05 00:58:49;;;;;;;11.68;2.20;;;;;;;;;;5031425;28;20562;-86
2022/04/05 01:01:18;;;;;;;10.98;2.33;;;;;;;;;;5045856;28;20055;-87
2022/04/05 01:03:49;;;;;;;13.45;2.28;;;;;;;;;;5050698;28;20155;-87
2022/04/05 01:06:38;;;;;;;8.55;2.22;;;;;;;;;;5048280;28;20040;-86
2022/04/05 01:09:04;;;;;;;10.48;2.30;;;;;;;;;;5035418;28;20040;-90
2022/04/05 01:11:31;;;;;;;10.48;1.92;;;;;;;;;;5032909;28;20044;-88
2022/04/05 01:13:57;;;;;;;14.05;2.33;;;;;;;;;;5031274;28;20051;-86
2022/04/05 01:16:23;;;;;;;9.13;2.25;;;;;;;;;;5030745;28;20045;-88
2022/04/05 01:18:49;;;;;;;16.02;2.28;;;;;;;;;;5031119;28;20568;-87
2022/04/05 01:21:16;;;;;;;10.43;2.45;;;;;;;;;;5033724;28;20044;-86
2022/04/05 01:24:01;;;;;;;9.80;2.40;;;;;;;;;;5042644;28;20520;-86
2022/04/05 01:26:27;;;;;;;8.35;2.33;;;;;;;;;;5046876;28;20102;-89
2022/04/05 01:28:53;;;;;;;8.95;2.15;;;;;;;;;;5034770;28;20129;-86
2022/04/05 01:31:19;;;;;;;12.00;2.00;;;;;;;;;;5037847;28;20110;-87
2022/04/05 01:33:45;;;;;;;9.65;2.10;;;;;;;;;;5034455;28;20045;-85
2022/04/05 01:36:24;;;;;;;9.45;2.20;;;;;;;;;;5045371;28;20048;-86
2022/04/05 01:38:50;;;;;;;10.05;2.20;;;;;;;;;;5034819;28;20084;-89
2022/04/05 01:41:16;;;;;;;13.93;2.80;;;;;;;;;;5051056;28;20424;-87
2022/04/05 01:43:42;;;;;;;10.82;2.65;;;;;;;;;;5042607;28;20098;-87
2022/04/05 01:46:08;;;;;;;12.63;2.78;;;;;;;;;;5033690;28;20063;-87
2022/04/05 01:48:34;;;;;;;8.93;2.35;;;;;;;;;;5050130;28;20044;-87
2022/04/05 01:51:01;;;;;;;7.82;2.10;;;;;;;;;;5034505;28;20047;-85
2022/04/05 01:53:27;;;;;;;7.43;1.88;;;;;;;;;;5034246;28;20048;-86
2022/04/05 01:55:53;;;;;;;11.32;2.10;;;;;;;;;;5041972;28;20041;-86
2022/04/05 01:58:19;;;;;;;9.02;2.03;;;;;;;;;;5033805;28;20574;-85
2022/04/05 02:00:45;;;;;;;12.50;2.47;;;;;;;;;;5032772;28;20288;-86
2022/04/05 02:03:12;;;;;;;9.60;2.10;;;;;;;;;;5033248;28;20120;-86
2022/04/05 02:05:38;;;;;;;9.45;2.05;;;;;;;;;;5033309;28;20045;-86
2022/04/05 02:08:05;;;;;;;7.45;2.20;;;;;;;;;;5045319;28;20536;-86
2022/04/05 02:10:31;;;;;;;11.20;2.10;;;;;;;;;;5033558;28;20124;-86
2022/04/05 02:12:58;;;;;;;9.18;2.10;;;;;;;;;;5039868;28;20044;-86
2022/04/05 02:15:24;;;;;;;10.30;2.33;;;;;;;;;;5042773;28;20094;-87
2022/04/05 02:17:51;;;;;;;10.38;2.40;;;;;;;;;;5033692;28;20064;-86
2022/04/05 02:20:18;;;;;;;10.65;2.30;;;;;;;;;;5051696;28;20041;-89
2022/04/05 02:22:44;;;;;;;14.13;2.60;;;;;;;;;;5050781;28;20060;-86
2022/04/05 02:25:10;;;;;;;10.45;2.60;;;;;;;;;;5033731;28;20041;-86
2022/04/05 02:27:40;;;;;;;14.18;2.80;;;;;;;;;;5033564;28;20077;-86
2022/04/05 02:30:06;;;;;;;12.18;2.60;;;;;;;;;;5035682;28;20086;-85
2022/04/05 02:32:32;;;;;;;11.93;3.03;;;;;;;;;;5033284;28;20397;-85
2022/04/05 02:34:58;;;;;;;10.85;2.60;;;;;;;;;;5033607;28;20404;-89
2022/04/05 02:37:25;;;;;;;9.10;2.70;;;;;;;;;;5044889;28;20044;-85
2022/04/05 02:39:52;;;;;;;12.23;2.80;;;;;;;;;;5049493;28;20045;-86
2022/04/05 02:42:18;;;;;;;9.32;2.85;;;;;;;;;;5038353;28;20078;-85
2022/04/05 02:44:45;;;;;;;11.13;2.70;;;;;;;;;;5049769;28;20045;-86
2022/04/05 02:47:12;;;;;;;14.65;3.10;;;;;;;;;;5045731;28;20048;-85
2022/04/05 02:49:38;;;;;;;15.80;3.45;;;;;;;;;;5050708;28;20508;-86
2022/04/05 02:52:05;;;;;;;13.88;3.25;;;;;;;;;;5036870;28;20537;-85
2022/04/05 02:54:31;;;;;;;14.60;3.35;;;;;;;;;;5049370;28;20041;-86
2022/04/05 02:56:58;;;;;;;13.73;3.50;;;;;;;;;;5045173;28;20072;-85
2022/04/05 02:59:24;;;;;;;12.88;3.05;;;;;;;;;;5033412;28;20424;-86
2022/04/05 03:01:50;;;;;;;10.48;2.88;;;;;;;;;;5049500;28;20455;-85
2022/04/05 03:04:16;;;;;;;15.50;3.35;;;;;;;;;;5040472;28;20090;-85
2022/04/05 03:06:43;;;;;;;13.45;3.63;;;;;;;;;;5041196;28;20036;-87
2022/04/05 03:09:09;;;;;;;11.65;3.53;;;;;;;;;;5048396;28;20629;-86
2022/04/05 03:11:35;;;;;;;14.18;2.95;;;;;;;;;;5032659;28;20532;-85
2022/04/05 03:14:01;;;;;;;12.70;3.30;;;;;;;;;;5039921;28;20123;-85
2022/04/05 03:16:28;;;;;;;10.85;3.75;;;;;;;;;;5035728;28;20492;-85
2022/04/05 03:18:54;;;;;;;14.52;3.65;;;;;;;;;;5032349;28;20052;-86
2022/04/05 03:21:20;;;;;;;13.77;3.28;;;;;;;;;;5048691;28;20462;-85
2022/04/05 03:23:46;;;;;;;13.68;3.40;;;;;;;;;;5032684;28;20465;-86
2022/04/05 03:26:12;;;;;;;14.50;3.40;;;;;;;;;;5043244;28;20032;-86
2022/04/05 03:28:38;;;;;;;16.23;3.63;;;;;;;;;;5049353;28;20036;-85
2022/04/05 03:31:04;;;;;;;16.50;3.42;;;;;;;;;;5050980;28;20036;-86
2022/04/05 03:33:31;;;;;;;14.23;3.40;;;;;;;;;;5048964;28;20500;-86
2022/04/05 03:35:57;;;;;;;13.85;3.83;;;;;;;;;;5041646;28;20094;-86
2022/04/05 03:38:23;;;;;;;16.65;3.90;;;;;;;;;;5049058;28;20072;-87
2022/04/05 03:40:49;;;;;;;20.10;4.30;;;;;;;;;;5048129;28;20119;-86
2022/04/05 03:43:15;;;;;;;18.13;3.92;;;;;;;;;;5036369;28;20102;-86
2022/04/05 03:45:42;;;;;;;15.52;4.80;;;;;;;;;;5028525;28;20081;-86
2022/04/05 03:48:09;;;;;;;11.85;3.80;;;;;;;;;;5037989;28;20052;-86
2022/04/05 03:50:35;;;;;;;12.93;3.88;;;;;;;;;;5012703;28;20502;-86
2022/04/05 03:53:01;;;;;;;16.38;4.78;;;;;;;;;;5046169;28;20071;-86
2022/04/05 03:55:28;;;;;;;19.35;5.13;;;;;;;;;;5039974;28;20068;-85
2022/04/05 03:57:54;;;;;;;19.30;5.68;;;;;;;;;;5040362;28;20120;-86
2022/04/05 04:00:20;;;;;;;15.85;5.10;;;;;;;;;;5031716;28;20041;-86
2022/04/05 04:02:46;;;;;;;18.67;5.10;;;;;;;;;;5032393;28;20076;-86
2022/04/05 04:05:20;;;;;;;18.70;5.18;;;;;;;;;;5041101;28;20041;-86
2022/04/05 04:07:47;;;;;;;20.85;4.80;;;;;;;;;;5040400;28;20041;-85
2022/04/05 04:10:13;;;;;;;18.92;4.15;;;;;;;;;;5030992;28;20048;-86
2022/04/05 04:12:40;;;;;;;25.38;4.25;;;;;;;;;;5028786;28;20037;-86
2022/04/05 04:15:07;;;;;;;19.23;5.00;;;;;;;;;;5036342;28;20378;-85
2022/04/05 04:17:33;;;;;;;18.30;4.10;;;;;;;;;;5048361;28;20048;-85
2022/04/05 04:20:00;;;;;;;17.05;3.85;;;;;;;;;;5031309;28;20049;-86
2022/04/05 04:22:29;;;;;;;16.77;4.35;;;;;;;;;;5044530;28;20432;-86
2022/04/05 04:24:57;;;;;;;13.73;3.65;;;;;;;;;;5035662;28;20033;-85
2022/04/05 04:27:24;;;;;;;20.10;3.95;;;;;;;;;;5047862;28;20124;-85
2022/04/05 04:29:50;;;;;;;15.30;3.25;;;;;;;;;;5031800;28;20049;-86
2022/04/05 04:32:16;;;;;;;13.90;3.40;;;;;;;;;;5043510;28;20052;-86
2022/04/05 04:34:43;;;;;;;17.00;3.25;;;;;;;;;;5035613;28;20048;-86
2022/04/05 04:37:09;;;;;;;16.13;3.08;;;;;;;;;;5036003;28;20048;-85
2022/04/05 04:39:37;;;;;;;18.88;3.72;;;;;;;;;;5042867;28;20086;-86
2022/04/05 04:42:04;;;;;;;15.57;3.50;;;;;;;;;;5031563;28;20283;-86
2022/04/05 04:44:30;;;;;;;17.20;4.30;;;;;;;;;;5039763;28;20076;-86
2022/04/05 04:46:56;;;;;;;21.77;4.50;;;;;;;;;;5038928;28;20085;-86
2022/04/05 04:49:22;;;;;;;14.60;4.18;;;;;;;;;;5032594;28;20405;-86
2022/04/05 04:51:49;;;;;;;19.38;3.53;;;;;;;;;;5043692;28;20041;-85
2022/04/05 04:54:15;;;;;;;19.67;4.28;;;;;;;;;;5033934;28;20051;-86
2022/04/05 04:56:41;;;;;;;17.50;4.15;;;;;;;;;;5036862;28;20056;-86
2022/04/05 04:59:07;;;;;;;22.23;4.07;;;;;;;;;;5041728;28;20033;-86
2022/04/05 05:01:36;;;;;;;13.57;3.20;;;;;;;;;;5030773;28;20468;-86
2022/04/05 05:04:02;;;;;;;18.73;4.25;;;;;;;;;;5041579;28;20404;-86
2022/04/05 05:06:28;;;;;;;19.20;3.95;;;;;;;;;;5037491;28;20106;-86
2022/04/05 05:08:54;;;;;;;23.65;4.32;;;;;;;;;;5047279;28;20417;-86
2022/04/05 05:11:21;;;;;;;19.67;4.38;;;;;;;;;;5031049;28;20080;-86
2022/04/05 05:13:47;;;;;;;16.70;3.35;;;;;;;;;;5041324;28;20399;-86
2022/04/05 05:16:13;;;;;;;23.58;4.38;;;;;;;;;;5036538;28;20047;-86
2022/04/05 05:18:42;;;;;;;16.75;3.90;;;;;;;;;;5033453;28;20045;-86
2022/04/05 05:21:08;;;;;;;14.55;3.20;;;;;;;;;;5043309;28;20045;-87
2022/04/05 05:23:34;;;;;;;12.63;4.10;;;;;;;;;;5032206;28;20076;-87
2022/04/05 05:26:00;;;;;;;16.23;3.88;;;;;;;;;;5037659;28;20045;-86
2022/04/05 05:28:27;;;;;;;18.58;3.95;;;;;;;;;;5027388;28;20038;-86
2022/04/05 05:30:53;;;;;;;17.10;3.25;;;;;;;;;;5043104;28;20045;-86
2022/04/05 05:33:19;;;;;;;15.55;3.63;;;;;;;;;;5031240;28;20094;-86
2022/04/05 05:35:45;;;;;;;17.85;3.90;;;;;;;;;;5038869;28;20042;-86
2022/04/05 05:38:14;;;;;;;20.77;4.28;;;;;;;;;;5039927;28;20083;-86
2022/04/05 05:40:40;;;;;;;13.65;3.83;;;;;;;;;;5030872;28;20441;-86
2022/04/05 05:43:06;;;;;;;16.23;3.97;;;;;;;;;;5042744;28;20493;-85
2022/04/05 05:45:34;;;;;;;15.85;4.05;;;;;;;;;;5034622;28;20057;-86
2022/04/05 05:48:00;;;;;;;18.65;3.92;;;;;;;;;;5034828;28;20195;-86
2022/04/05 05:50:27;;;;;;;12.77;3.72;;;;;;;;;;5042816;28;20037;-86
2022/04/05 05:52:53;;;;;;;14.88;4.00;;;;;;;;;;5030570;28;20049;-87
2022/04/05 05:55:25;;;;;;;17.30;5.13;;;;;;;;;;5039303;28;20556;-85
2022/04/05 05:57:52;;;;;;;16.52;4.70;;;;;;;;;;5039069;28;20048;-85
2022/04/05 06:00:22;;;;;;;21.60;4.72;;;;;;;;;;5030304;28;20200;-84
2022/04/05 06:02:58;;;;;;;14.68;4.78;;;;;;;;;;5030875;28;20037;-85
2022/04/05 06:05:24;;;;;;;13.60;4.53;;;;;;;;;;5046505;28;20044;-85
2022/04/05 06:07:51;;;;;;;15.48;5.15;;;;;;;;;;5035630;28;20048;-84
2022/04/05 06:10:17;;;;;;;16.33;4.65;;;;;;;;;;5047588;28;20372;-85
2022/04/05 06:12:45;;;;;;;14.38;4.85;;;;;;;;;;5050147;28;20127;-85
2022/04/05 06:15:12;;;;;;;16.92;5.30;;;;;;;;;;5040848;28;20080;-85
2022/04/05 06:17:39;;;;;;;14.60;4.63;;;;;;;;;;5043649;28;20467;-85
2022/04/05 06:20:06;;;;;;;18.67;6.30;;;;;;;;;;5033725;28;20489;-84
2022/04/05 06:22:40;;;;;;;16.17;5.85;;;;;;;;;;5044839;28;20037;-85
2022/04/05 06:25:06;;;;;;;16.33;5.95;;;;;;;;;;5013395;28;20037;-85
2022/04/05 06:27:33;;;;;;;16.13;5.38;;;;;;;;;;5044014;28;20522;-85
2022/04/05 06:29:59;;;;;;;13.85;5.43;;;;;;;;;;5030043;28;20048;-85
2022/04/05 06:32:25;;;;;;;14.38;4.85;;;;;;;;;;5044666;28;20036;-86
2022/04/05 06:34:51;;;;;;;12.63;4.80;;;;;;;;;;5040623;28;20412;-86
2022/04/05 06:37:17;;;;;;;13.38;4.47;;;;;;;;;;5029783;28;20175;-87
2022/04/05 06:39:43;;;;;;;15.48;4.40;;;;;;;;;;5045669;28;20048;-86
2022/04/05 06:42:09;;;;;;;15.18;4.15;;;;;;;;;;5034186;28;20040;-86
2022/04/05 06:44:36;;;;;;;11.43;3.90;;;;;;;;;;5041076;28;20509;-86
2022/04/05 06:47:02;;;;;;;12.45;4.13;;;;;;;;;;5041639;28;20053;-86
2022/04/05 06:49:29;;;;;;;11.10;4.05;;;;;;;;;;5033232;28;20033;-86
2022/04/05 06:51:55;;;;;;;13.15;5.25;;;;;;;;;;5045490;28;20489;-86
2022/04/05 06:54:23;;;;;;;11.93;4.22;;;;;;;;;;5037523;28;20129;-86
2022/04/05 06:56:49;;;;;;;12.98;4.57;;;;;;;;;;5037341;28;20448;-87
2022/04/05 06:59:15;;;;;;;12.93;5.13;;;;;;;;;;5045176;28;20048;-87
2022/04/05 07:01:41;;;;;;;16.80;5.72;;;;;;;;;;5032693;28;20037;-86
2022/04/05 07:04:08;;;;;;;11.00;4.90;;;;;;;;;;5041805;28;20529;-86
2022/04/05 07:06:35;;;;;;;13.30;4.68;;;;;;;;;;5040421;28;20044;-87
2022/04/05 07:09:02;;;;;;;13.98;4.97;;;;;;;;;;5033769;28;20037;-86
2022/04/05 07:11:28;;;;;;;14.50;4.60;;;;;;;;;;5044933;28;20099;-88
2022/04/05 07:13:54;;;;;;;12.55;4.60;;;;;;;;;;5035492;28;20041;-85
2022/04/05 07:16:21;;;;;;;13.13;4.45;;;;;;;;;;5037921;28;20053;-86
2022/04/05 07:18:47;;;;;;;13.50;4.38;;;;;;;;;;5042136;28;20076;-86
2022/04/05 07:21:14;;;;;;;10.95;3.78;;;;;;;;;;5032409;28;20045;-87
2022/04/05 07:23:40;;;;;;;15.32;4.68;;;;;;;;;;5042409;28;20049;-86
2022/04/05 07:26:06;;;;;;;10.57;3.47;;;;;;;;;;5038742;28;20040;-87
2022/04/05 07:28:32;;;;;;;10.35;3.63;;;;;;;;;;5034820;28;20037;-87
2022/04/05 07:31:04;;;;;;;9.82;3.08;;;;;;;;;;5044942;28;20107;-86
2022/04/05 07:33:30;;;;;;;12.07;3.38;;;;;;;;;;5035201;28;20048;-86
2022/04/05 07:35:57;;;;;;;10.07;3.35;;;;;;;;;;5038164;28;20318;-86
2022/04/05 07:38:24;;;;;;;11.73;3.45;;;;;;;;;;5032192;28;20099;-86
2022/04/05 07:40:52;;;;;;;11.98;3.35;;;;;;;;;;5044635;28;20045;-86
2022/04/05 07:43:22;;;;;;;11.00;3.17;;;;;;;;;;5034403;28;20036;-85
2022/04/05 07:45:49;;;;;;;8.93;3.50;;;;;;;;;;5037704;28;20548;-87
2022/04/05 07:48:19;;;;;;;11.57;3.60;;;;;;;;;;5042911;28;20037;-86
2022/04/05 07:50:45;;;;;;;14.02;4.10;;;;;;;;;;5032032;28;20051;-85
2022/04/05 07:53:12;;;;;;;12.63;3.85;;;;;;;;;;5041552;28;20041;-86
2022/04/05 07:55:38;;;;;;;9.07;3.78;;;;;;;;;;5038926;28;20378;-86
2022/04/05 07:58:04;;;;;;;14.70;4.05;;;;;;;;;;5034011;28;20038;-87
2022/04/05 08:00:31;;;;;;;12.43;4.00;;;;;;;;;;5045629;28;20047;-86
2022/04/05 08:02:57;;;;;;;11.20;4.28;;;;;;;;;;5025424;28;20312;-85
2022/04/05 08:05:23;;;;;;;14.10;5.05;;;;;;;;;;5037658;28;20052;-85
2022/04/05 08:07:50;;;;;;;14.18;4.10;;;;;;;;;;5034282;28;20079;-86
2022/04/05 08:10:19;;;;;;;10.50;4.43;;;;;;;;;;5027486;28;20072;-86
2022/04/05 08:12:47;;;;;;;10.10;3.92;;;;;;;;;;5016848;28;20044;-85
2022/04/05 08:15:15;;;;;;;12.43;4.07;;;;;;;;;;5028095;28;20037;-84
2022/04/05 08:17:41;;;;;;;9.52;4.22;;;;;;;;;;5025029;28;20059;-86
2022/04/05 08:20:08;;;;;;;9.05;3.88;;;;;;;;;;5014957;28;20037;-86
2022/04/05 08:22:37;;;;;;;10.68;3.75;;;;;;;;;;5030908;28;20036;-85
2022/04/05 08:25:03;;;;;;;10.65;4.30;;;;;;;;;;5021436;28;20060;-85
2022/04/05 08:27:29;;;;;;;12.45;4.30;;;;;;;;;;5023165;28;20037;-86
2022/04/05 08:29:55;;;;;;;9.90;4.20;;;;;;;;;;5014579;28;20440;-87
2022/04/05 08:32:22;;;;;;;10.40;3.85;;;;;;;;;;5025620;28;20048;-85
2022/04/05 08:34:48;;;;;;;11.73;4.07;;;;;;;;;;5020341;28;20041;-87
2022/04/05 08:37:14;;;;;;;11.10;3.97;;;;;;;;;;5017943;28;20041;-86
2022/04/05 08:39:42;;;;;;;9.15;3.92;;;;;;;;;;5011458;28;20037;-87
2022/04/05 08:42:09;;;;;;;9.50;4.10;;;;;;;;;;5025693;28;20091;-86
2022/04/05 08:44:36;;;;;;;9.32;3.83;;;;;;;;;;5003211;28;20037;-85
2022/04/05 08:47:03;;;;;;;8.32;3.58;;;;;;;;;;5034479;28;20564;-86
2022/04/05 08:49:30;;;;;;;12.57;4.22;;;;;;;;;;5043758;28;20055;-85
2022/04/05 08:51:56;;;;;;;7.55;3.30;;;;;;;;;;5031865;28;20053;-86
2022/04/05 08:54:22;;;;;;;8.75;3.38;;;;;;;;;;5036257;28;20133;-87
2022/04/05 08:56:50;;;;;;;8.40;3.15;;;;;;;;;;5035187;28;20037;-87
2022/04/05 08:59:16;;;;;;;9.57;2.58;;;;;;;;;;5043560;28;20126;-85
2022/04/05 09:01:43;;;;;;;11.90;2.70;;;;;;;;;;5026893;28;20045;-86
2022/04/05 09:04:10;;;;;;;7.60;2.67;;;;;;;;;;5034807;28;20033;-85
2022/04/05 09:06:37;;;;;;;7.57;2.50;;;;;;;;;;5047621;28;20087;-86
2022/04/05 09:09:10;;;;;;;8.10;2.63;;;;;;;;;;5047642;28;20318;-86
2022/04/05 09:11:36;;;;;;;8.77;2.70;;;;;;;;;;5044590;28;20053;-85
2022/04/05 09:17:38;;;;;;;6.18;2.28;;;;;;;;;;5009717;28;20139;-85
2022/04/05 09:20:05;;;;;;;6.80;2.38;;;;;;;;;;4999416;28;20048;-86
2022/04/05 09:22:35;;;;;;;7.85;2.38;;;;;;;;;;5002622;28;20406;-85
2022/04/05 09:25:04;;;;;;;6.75;2.40;;;;;;;;;;4993340;28;20041;-85
2022/04/05 09:27:48;;;;;;;11.10;2.90;;;;;;;;;;5003409;28;20205;-85
2022/04/05 09:30:16;;;;;;;8.02;2.50;;;;;;;;;;5001190;28;20045;-84
2022/04/05 09:32:46;;;;;;;5.75;2.40;;;;;;;;;;4992940;28;20133;-85
2022/04/05 09:35:13;;;;;;;5.75;2.15;;;;;;;;;;4989279;28;20097;-85
2022/04/05 09:37:39;;;;;;;4.70;2.30;;;;;;;;;;4984597;28;20061;-85
2022/04/05 09:40:35;;;;;;;6.30;1.98;;;;;;;;;;5001465;28;20528;-85
2022/04/05 09:43:22;;;;;;;6.55;2.15;;;;;;;;;;4980559;28;20048;-85
2022/04/05 09:45:51;;;;;;;5.45;1.80;;;;;;;;;;5012443;28;20220;-85
2022/04/05 09:48:19;;;;;;;6.47;1.90;;;;;;;;;;5022352;28;20490;-85
2022/04/05 09:51:04;;;;;;;5.00;1.90;;;;;;;;;;5046847;28;20049;-86
2022/04/05 09:53:30;;;;;;;;;;;;;;;;;;5040306;28;20041;-85
2022/04/05 09:56:14;;;;;;;5.45;1.70;;;;;;;;;;5030481;28;19924;-85
2022/04/05 09:58:47;;;;;;;6.72;1.90;;;;;;;;;;5046475;28;20053;-85
2022/04/05 10:01:14;;;;;;;4.55;1.88;;;;;;;;;;5030379;28;20076;-84
2022/04/05 10:03:41;;;;;;;5.72;2.03;;;;;;;;;;5042645;28;20388;-85
2022/04/05 10:06:07;;;;;;;6.47;2.25;;;;;;;;;;5034362;28;20374;-86
2022/04/05 10:08:35;;;;;;;6.95;1.80;;;;;;;;;;5038950;28;20044;-85
2022/04/05 10:11:13;;;;;;;4.80;1.95;;;;;;;;;;5038230;28;20039;-85
2022/04/05 10:13:56;;;;;;;7.13;1.92;;;;;;;;;;5032554;28;20497;-85
2022/04/05 10:16:26;;;;;;;6.25;2.40;;;;;;;;;;5046354;28;20188;-85
2022/04/05 10:18:57;;;;;;;5.82;2.17;;;;;;;;;;5037862;28;20162;-85
2022/04/05 10:21:25;;;;;;;5.00;1.90;;;;;;;;;;5037615;28;20049;-85
2022/04/05 10:23:53;;;;;;;7.78;2.10;;;;;;;;;;5046203;28;20488;-84
2022/04/05 10:26:24;;;;;;;6.43;2.00;;;;;;;;;;5033945;28;20398;-84
2022/04/05 10:28:51;;;;;;;5.32;2.00;;;;;;;;;;5040975;28;20053;-84
2022/04/05 10:31:21;;;;;;;3.95;1.90;;;;;;;;;;5042684;28;20049;-84
2022/04/05 10:34:05;;;;;;;4.35;2.20;;;;;;;;;;5033548;28;20073;-84
2022/04/05 10:36:32;;;;;;;4.32;1.80;;;;;;;;;;5042499;28;20038;-85
2022/04/05 10:39:17;;;;;;;3.42;1.95;;;;;;;;;;5040790;28;20036;-86
2022/04/05 10:42:13;;;;;;;4.60;2.10;;;;;;;;;;5031979;28;20044;-84
2022/04/05 10:44:41;;;;;;;4.40;2.05;;;;;;;;;;5014316;28;20413;-85
2022/04/05 10:47:08;;;;;;;4.38;1.90;;;;;;;;;;5035622;28;20049;-85
2022/04/05 10:49:35;;;;;;;4.55;2.08;;;;;;;;;;5046113;28;20441;-84
2022/04/05 10:52:19;;;;;;;4.20;2.38;;;;;;;;;;5034945;28;20500;-85
2022/04/05 10:54:53;;;;;;;4.15;2.25;;;;;;;;;;5037773;28;20436;-84
2022/04/05 10:57:21;;;;;;;4.10;1.92;;;;;;;;;;5045544;28;20041;-83
2022/04/05 10:59:49;;;;;;;2.97;1.80;;;;;;;;;;5033940;28;20040;-84
2022/04/05 11:02:28;;;;;;;4.47;1.88;;;;;;;;;;5040554;28;20037;-85
2022/04/05 11:05:19;;;;;;;4.20;2.13;;;;;;;;;;5043722;28;20095;-84
2022/04/05 11:08:07;;;;;;;3.03;2.08;;;;;;;;;;5029207;28;20033;-85
2022/04/05 11:10:39;;;;;;;3.00;1.65;;;;;;;;;;5038252;28;20037;-82
2022/04/05 11:13:06;;;;;;;3.55;2.00;;;;;;;;;;5042478;28;20132;-86
2022/04/05 11:15:40;;;;;;;3.03;1.65;;;;;;;;;;5033532;28;20110;-85
2022/04/05 11:18:06;;;;;;;4.95;1.77;;;;;;;;;;5039444;28;20665;-85
2022/04/05 11:20:32;;;;;;;2.97;1.70;;;;;;;;;;5042179;28;20531;-86
2022/04/05 11:23:02;;;;;;;2.33;1.70;;;;;;;;;;5031533;28;20045;-87
2022/04/05 11:25:29;;;;;;;3.38;2.00;;;;;;;;;;5034240;28;20040;-87
2022/04/05 11:27:56;;;;;;;2.97;1.80;;;;;;;;;;5039326;28;20117;-87
2022/04/05 11:30:22;;;;;;;4.20;2.05;;;;;;;;;;5042180;28;20128;-85
2022/04/05 11:33:12;;;;;;;3.95;2.35;;;;;;;;;;5032350;28;20041;-86
2022/04/05 11:35:48;;;;;;;6.10;3.58;;;;;;;;;;5040424;28;20120;-89
2022/04/05 11:38:18;;;;;;;4.70;2.65;;;;;;;;;;5042256;28;20048;-87
2022/04/05 11:40:48;;;;;;;4.05;2.00;;;;;;;;;;5032373;28;20334;-85
2022/04/05 11:43:19;;;;;;;4.13;2.20;;;;;;;;;;5042502;28;20061;-85
2022/04/05 11:45:49;;;;;;;3.92;1.90;;;;;;;;;;5038228;28;20063;-87
2022/04/05 11:48:19;;;;;;;3.90;2.00;;;;;;;;;;5033367;28;20037;-83
2022/04/05 11:50:49;;;;;;;2.92;1.80;;;;;;;;;;5047789;28;20048;-85
2022/04/05 11:53:23;;;;;;;3.50;1.92;;;;;;;;;;5040450;28;20037;-85
2022/04/05 11:56:08;;;;;;;4.20;2.20;;;;;;;;;;5040523;28;20037;-84
2022/04/05 11:58:35;;;;;;;3.67;2.00;;;;;;;;;;5045566;28;20404;-85
2022/04/05 12:01:03;;;;;;;3.03;1.90;;;;;;;;;;5034588;28;20090;-82
2022/04/05 12:03:29;;;;;;;3.33;2.20;;;;;;;;;;5037205;28;20041;-85
2022/04/05 12:05:56;;;;;;;4.55;2.40;;;;;;;;;;5042304;28;20041;-85
2022/04/05 12:08:22;;;;;;;4.90;2.53;;;;;;;;;;5031447;28;20088;-84
2022/04/05 12:10:48;;;;;;;4.57;2.33;;;;;;;;;;5041253;28;20045;-84
2022/04/05 12:13:14;;;;;;;4.45;2.22;;;;;;;;;;5038185;28;20094;-85
2022/04/05 12:15:41;;;;;;;3.85;2.30;;;;;;;;;;5033447;28;20041;-85
2022/04/05 12:18:21;;;;;;;4.45;2.30;;;;;;;;;;5044172;28;20037;-84
2022/04/05 12:21:13;;;;;;;6.07;2.50;;;;;;;;;;5035152;28;20051;-85
2022/04/05 12:23:41;;;;;;;4.68;2.65;;;;;;;;;;5028944;28;20076;-84
2022/04/05 12:26:30;;;;;;;3.90;2.20;;;;;;;;;;5044431;28;20116;-84
2022/04/05 12:28:59;;;;;;;3.72;2.25;;;;;;;;;;5037814;28;20523;-84
2022/04/05 12:31:30;;;;;;;3.45;1.95;;;;;;;;;;5033540;28;20638;-84
2022/04/05 12:33:56;;;;;;;5.28;2.47;;;;;;;;;;5046644;28;20381;-84
2022/04/05 12:36:23;;;;;;;5.10;2.40;;;;;;;;;;5041130;28;20104;-83
2022/04/05 12:38:49;;;;;;;5.45;2.72;;;;;;;;;;5039313;28;20124;-86
2022/04/05 12:41:16;;;;;;;4.72;2.40;;;;;;;;;;5058455;28;20041;-85
2022/04/05 12:43:43;;;;;;;4.45;2.30;;;;;;;;;;5030838;28;20218;-85
2022/04/05 12:46:10;;;;;;;5.57;3.25;;;;;;;;;;5041268;28;20050;-84
2022/04/05 12:48:37;;;;;;;6.63;2.95;;;;;;;;;;5037403;28;20041;-85
2022/04/05 12:51:04;;;;;;;5.60;2.50;;;;;;;;;;5033169;28;20045;-85
2022/04/05 12:53:35;;;;;;;4.78;2.58;;;;;;;;;;5043184;28;20041;-86
2022/04/05 12:56:03;;;;;;;6.75;3.58;;;;;;;;;;5033681;28;20457;-86
2022/04/05 12:58:34;;;;;;;6.68;3.38;;;;;;;;;;5036571;28;20144;-86
2022/04/05 13:01:00;;;;;;;7.88;3.75;;;;;;;;;;5041877;28;20329;-86
2022/04/05 13:03:30;;;;;;;6.80;3.80;;;;;;;;;;5030786;28;20044;-85
2022/04/05 13:09:24;;;;;;;8.77;4.28;;;;;;;;;;5002299;28;20046;-86
2022/04/05 13:12:06;;;;;;;8.20;4.20;;;;;;;;;;4999656;28;20549;-83
2022/04/05 13:14:32;;;;;;;7.10;3.75;;;;;;;;;;5036246;28;20496;-84
2022/04/05 13:17:02;;;;;;;8.50;3.97;;;;;;;;;;5032165;28;20071;-85
2022/04/05 13:19:28;;;;;;;9.68;4.80;;;;;;;;;;5046199;28;20077;-83
2022/04/05 13:21:55;;;;;;;10.88;5.25;;;;;;;;;;5039596;28;20059;-84
2022/04/05 13:24:23;;;;;;;9.07;4.65;;;;;;;;;;5038116;28;20042;-84
2022/04/05 13:26:53;;;;;;;9.95;4.82;;;;;;;;;;5047496;28;20039;-83
2022/04/05 13:29:26;;;;;;;8.63;4.38;;;;;;;;;;5036198;28;20492;-82
2022/04/05 13:31:57;;;;;;;10.48;5.45;;;;;;;;;;5040967;28;20052;-83
2022/04/05 13:34:24;;;;;;;10.20;5.43;;;;;;;;;;5045427;28;20120;-83
2022/04/05 13:36:52;;;;;;;9.57;4.88;;;;;;;;;;5034328;28;20045;-83
2022/04/05 13:39:18;;;;;;;11.57;5.88;;;;;;;;;;5044747;28;20401;-83
2022/04/05 13:41:45;;;;;;;11.48;5.53;;;;;;;;;;5040981;28;20063;-83
2022/04/05 13:44:13;;;;;;;12.25;5.90;;;;;;;;;;5036453;28;20414;-83
2022/04/05 13:46:40;;;;;;;10.82;5.47;;;;;;;;;;5046701;28;20447;-83
2022/04/05 13:49:10;;;;;;;10.98;5.60;;;;;;;;;;5036690;28;20041;-83
2022/04/05 13:51:37;;;;;;;12.20;5.68;;;;;;;;;;5023547;28;20042;-83
2022/04/05 13:54:04;;;;;;;11.25;6.25;;;;;;;;;;5028257;28;20489;-83
2022/04/05 13:56:33;;;;;;;13.52;6.43;;;;;;;;;;5029118;28;20045;-83
2022/04/05 13:59:00;;;;;;;15.20;7.25;;;;;;;;;;5021296;28;20101;-83
2022/04/05 14:01:26;;;;;;;13.70;6.40;;;;;;;;;;5039645;28;20041;-83
2022/04/05 14:03:52;;;;;;;17.20;7.47;;;;;;;;;;5045030;28;20036;-83
2022/04/05 14:06:19;;;;;;;15.13;6.90;;;;;;;;;;5034121;28;20037;-82
2022/04/05 14:08:45;;;;;;;15.57;7.05;;;;;;;;;;5027687;28;20493;-83
2022/04/05 14:11:12;;;;;;;13.57;6.70;;;;;;;;;;5040401;28;20037;-85
2022/04/05 14:13:38;;;;;;;14.90;7.72;;;;;;;;;;5030641;28;20539;-83
2022/04/05 14:16:04;;;;;;;16.27;7.53;;;;;;;;;;5030507;28;20127;-82
2022/04/05 14:18:31;;;;;;;15.13;7.50;;;;;;;;;;5035847;28;20044;-84
2022/04/05 14:20:57;;;;;;;17.05;8.73;;;;;;;;;;5042012;28;20033;-82
2022/04/05 14:23:23;;;;;;;18.35;9.45;;;;;;;;;;5030720;28;20037;-83
2022/04/05 14:25:49;;;;;;;17.23;9.82;;;;;;;;;;5029872;28;20528;-81
2022/04/05 14:28:15;;;;;;;20.58;10.02;;;;;;;;;;5017979;28;20044;-82
2022/04/05 14:30:42;;;;;;;23.55;10.18;;;;;;;;;;5024899;28;20041;-85
2022/04/05 14:33:08;;;;;;;20.23;10.98;;;;;;;;;;5009515;28;20068;-82
2022/04/05 14:35:34;;;;;;;22.17;10.05;;;;;;;;;;5016939;28;20205;-85
2022/04/05 14:38:00;;;;;;;19.70;10.43;;;;;;;;;;5017508;28;20067;-84
2022/04/05 14:40:26;;;;;;;20.63;10.50;;;;;;;;;;5033011;28;20037;-83
2022/04/05 14:42:53;;;;;;;22.10;10.50;;;;;;;;;;5050442;28;20048;-83
2022/04/05 14:45:20;;;;;;;23.55;11.10;;;;;;;;;;5048911;28;20556;-82
2022/04/05 14:47:47;;;;;;;20.90;10.57;;;;;;;;;;5049002;28;20123;-82
2022/04/05 14:50:13;;;;;;;20.08;10.88;;;;;;;;;;5036637;28;20040;-83